createdAt,value
2023-11-07T00:01:54.762Z,97800.75
2023-11-07T00:04:22.399Z,97798.84
2023-11-07T00:06:51.528Z,97803.41
2023-11-07T00:09:19.310Z,97805.59
2023-11-07T00:11:47.945Z,97802.22
2023-11-07T00:14:15.905Z,97793.66
2023-11-07T00:16:43.816Z,97797.91
2023-11-07T00:19:11.505Z,97802.06
2023-11-07T00:21:39.257Z,97799.72
2023-11-07T00:24:07.940Z,97794.56
2023-11-07T00:26:35.769Z,97789.47
2023-11-07T00:29:03.451Z,97796.13
2023-11-07T00:31:31.927Z,97798.94
2023-11-07T00:33:59.962Z,97793.44
2023-11-07T00:36:28.018Z,97791.81
2023-11-07T00:38:56.364Z,97793.00
2023-11-07T00:41:25.020Z,97788.47
2023-11-07T00:43:53.045Z,97784.88
2023-11-07T00:46:20.836Z,97786.16
2023-11-07T00:48:48.652Z,97790.31
2023-11-07T00:51:16.347Z,97787.84
2023-11-07T00:53:44.060Z,97788.31
2023-11-07T00:56:11.724Z,97789.63
2023-11-07T00:58:39.337Z,97786.72
2023-11-07T01:01:07.218Z,97792.78
2023-11-07T01:03:34.890Z,97784.53
2023-11-07T01:06:03.157Z,97786.97
2023-11-07T01:08:30.997Z,97789.09
2023-11-07T01:10:58.820Z,97786.63
2023-11-07T01:13:27.206Z,97789.75
2023-11-07T01:15:54.905Z,97780.94
2023-11-07T01:18:23.305Z,97785.16
2023-11-07T01:20:51.217Z,97791.00
2023-11-07T01:23:18.839Z,97780.47
2023-11-07T01:25:46.593Z,97782.16
2023-11-07T01:28:14.473Z,97790.34
2023-11-07T01:30:42.327Z,97788.44
2023-11-07T01:33:11.497Z,97780.81
2023-11-07T01:35:39.402Z,97777.16
2023-11-07T01:38:07.067Z,97767.19
2023-11-07T01:40:35.463Z,97771.44
2023-11-07T01:43:14.050Z,97770.22
2023-11-07T01:45:43.353Z,97783.59
2023-11-07T01:48:19.273Z,97783.25
2023-11-07T01:50:51.532Z,97781.94
2023-11-07T01:53:21.459Z,97787.56
2023-11-07T01:55:49.851Z,97769.59
2023-11-07T01:58:19.585Z,97773.56
2023-11-07T02:00:49.050Z,97775.25
2023-11-07T02:03:17.392Z,97782.59
2023-11-07T02:05:46.429Z,97779.63
2023-11-07T02:08:14.465Z,97765.28
2023-11-07T02:10:42.909Z,97748.09
2023-11-07T02:13:12.170Z,97752.44
2023-11-07T02:15:40.567Z,97764.00
2023-11-07T02:18:08.386Z,97765.91
2023-11-07T02:20:40.414Z,97757.97
2023-11-07T02:23:25.842Z,97743.25
2023-11-07T02:25:53.994Z,97768.59
2023-11-07T02:28:21.812Z,97760.06
2023-11-07T02:30:49.742Z,97758.06
2023-11-07T02:33:17.537Z,97754.97
2023-11-07T02:35:45.353Z,97760.47
2023-11-07T02:38:13.706Z,97754.78
2023-11-07T02:40:41.624Z,97756.22
2023-11-07T02:43:10.049Z,97754.84
2023-11-07T02:45:39.012Z,97756.88
2023-11-07T02:48:07.885Z,97743.50
2023-11-07T02:50:35.854Z,97763.25
2023-11-07T02:53:04.545Z,97757.97
2023-11-07T02:55:32.198Z,97752.25
2023-11-07T02:57:59.837Z,97757.88
2023-11-07T03:00:28.278Z,97756.38
2023-11-07T03:02:57.179Z,97763.28
2023-11-07T03:05:25.187Z,97752.50
2023-11-07T03:07:52.943Z,97749.81
2023-11-07T03:10:20.864Z,97767.72
2023-11-07T03:12:48.658Z,97764.38
2023-11-07T03:15:20.345Z,97753.91
2023-11-07T03:17:48.579Z,97744.63
2023-11-07T03:20:18.132Z,97757.50
2023-11-07T03:22:45.939Z,97748.09
2023-11-07T03:25:13.614Z,97750.56
2023-11-07T03:27:41.200Z,97759.56
2023-11-07T03:30:10.196Z,97750.44
2023-11-07T03:32:38.671Z,97742.75
2023-11-07T03:35:06.486Z,97746.59
2023-11-07T03:37:34.119Z,97747.34
2023-11-07T03:40:01.802Z,97743.84
2023-11-07T03:42:30.713Z,97750.19
2023-11-07T03:44:58.404Z,97754.28
2023-11-07T03:47:26.752Z,97755.03
2023-11-07T03:49:54.364Z,97739.41
2023-11-07T03:52:22.110Z,97750.44
2023-11-07T03:54:49.770Z,97744.75
2023-11-07T03:57:17.600Z,97743.75
2023-11-07T03:59:48.074Z,97727.44
2023-11-07T04:02:15.747Z,97735.63
2023-11-07T04:04:43.499Z,97731.69
2023-11-07T04:07:11.342Z,97727.16
2023-11-07T04:09:39.041Z,97726.69
2023-11-07T04:12:07.572Z,97744.91
2023-11-07T04:14:35.544Z,97739.25
2023-11-07T04:17:06.190Z,97734.91
2023-11-07T04:19:35.091Z,97734.16
2023-11-07T04:22:05.566Z,97740.09
2023-11-07T04:24:33.345Z,97745.59
2023-11-07T04:27:01.734Z,97746.47
2023-11-07T04:29:29.343Z,97736.84
2023-11-07T04:31:56.942Z,97733.25
2023-11-07T04:34:24.611Z,97726.31
2023-11-07T04:36:56.391Z,97722.38
2023-11-07T04:39:24.415Z,97724.94
2023-11-07T04:41:53.666Z,97735.50
2023-11-07T04:44:21.585Z,97736.84
2023-11-07T04:46:49.302Z,97724.66
2023-11-07T04:49:17.175Z,97714.41
2023-11-07T04:51:44.874Z,97717.56
2023-11-07T04:54:12.455Z,97714.53
2023-11-07T04:56:40.077Z,97710.63
2023-11-07T04:59:07.655Z,97717.59
2023-11-07T05:01:35.713Z,97702.25
2023-11-07T05:04:03.930Z,97715.97
2023-11-07T05:06:32.212Z,97705.75
2023-11-07T05:09:00.342Z,97712.13
2023-11-07T05:11:28.993Z,97714.13
2023-11-07T05:13:56.801Z,97698.28
2023-11-07T05:16:25.789Z,97703.16
2023-11-07T05:18:54.943Z,97710.81
2023-11-07T05:21:23.020Z,97706.78
2023-11-07T05:23:50.854Z,97697.38
2023-11-07T05:26:18.749Z,97697.31
2023-11-07T05:28:46.426Z,97699.56
2023-11-07T05:31:14.225Z,97697.72
2023-11-07T05:33:43.422Z,97699.22
2023-11-07T05:36:11.375Z,97705.47
2023-11-07T05:38:40.184Z,97704.47
2023-11-07T05:41:12.589Z,97712.28
2023-11-07T05:43:44.401Z,97702.59
2023-11-07T05:46:12.648Z,97688.94
2023-11-07T05:48:41.151Z,97699.28
2023-11-07T05:51:09.842Z,97692.88
2023-11-07T05:53:37.537Z,97681.28
2023-11-07T05:56:06.367Z,97691.88
2023-11-07T05:58:34.150Z,97697.00
2023-11-07T06:01:01.884Z,97702.47
2023-11-07T06:03:29.684Z,97697.88
2023-11-07T06:05:57.578Z,97692.03
2023-11-07T06:08:25.373Z,97678.44
2023-11-07T06:10:53.074Z,97672.13
2023-11-07T06:13:20.679Z,97680.63
2023-11-07T06:15:48.318Z,97680.59
2023-11-07T06:18:16.213Z,97671.94
2023-11-07T06:20:44.131Z,97668.34
2023-11-07T06:23:12.333Z,97681.72
2023-11-07T06:25:40.190Z,97674.50
2023-11-07T06:28:09.919Z,97674.22
2023-11-07T06:30:38.990Z,97668.34
2023-11-07T06:33:06.974Z,97669.53
2023-11-07T06:35:35.255Z,97663.84
2023-11-07T06:38:03.203Z,97667.25
2023-11-07T06:40:30.874Z,97664.91
2023-11-07T06:42:59.323Z,97663.81
2023-11-07T06:45:26.992Z,97657.97
2023-11-07T06:47:55.427Z,97657.72
2023-11-07T06:50:23.134Z,97655.97
2023-11-07T06:52:52.896Z,97656.34
2023-11-07T06:55:26.803Z,97657.00
2023-11-07T06:57:57.124Z,97650.97
2023-11-07T07:00:28.463Z,97652.94
2023-11-07T07:02:58.139Z,97648.84
2023-11-07T07:05:27.510Z,97653.22
2023-11-07T07:07:56.243Z,97654.06
2023-11-07T07:10:25.343Z,97662.13
2023-11-07T07:12:52.972Z,97658.75
2023-11-07T07:15:20.949Z,97658.84
2023-11-07T07:17:48.745Z,97647.25
2023-11-07T07:20:16.485Z,97652.75
2023-11-07T07:22:45.961Z,97652.09
2023-11-07T07:25:22.012Z,97652.34
2023-11-07T07:27:51.710Z,97657.53
2023-11-07T07:30:27.790Z,97645.06
2023-11-07T07:32:56.958Z,97652.69
2023-11-07T07:35:24.877Z,97643.88
2023-11-07T07:37:55.121Z,97631.91
2023-11-07T07:40:27.763Z,97640.06
2023-11-07T07:42:59.795Z,97634.22
2023-11-07T07:45:28.107Z,97647.81
2023-11-07T07:47:58.670Z,97636.97
2023-11-07T07:50:26.939Z,97633.88
2023-11-07T07:52:57.799Z,97619.94
2023-11-07T07:55:34.983Z,97634.66
2023-11-07T07:58:04.971Z,97626.91
2023-11-07T08:00:33.045Z,97628.88
2023-11-07T08:03:08.648Z,97633.91
2023-11-07T08:05:42.045Z,97619.19
2023-11-07T08:08:12.680Z,97628.09
2023-11-07T08:10:41.084Z,97621.09
2023-11-07T08:13:11.781Z,97621.03
2023-11-07T08:15:39.603Z,97613.59
2023-11-07T08:18:10.386Z,97624.00
2023-11-07T08:20:40.215Z,97626.31
2023-11-07T08:23:08.377Z,97617.84
2023-11-07T08:25:36.365Z,97613.88
2023-11-07T08:28:11.427Z,97631.28
2023-11-07T08:30:39.701Z,97618.81
2023-11-07T08:33:09.306Z,97618.41
2023-11-07T08:35:40.258Z,97612.84
2023-11-07T08:38:08.449Z,97613.19
2023-11-07T08:40:36.924Z,97613.47
2023-11-07T08:43:04.906Z,97617.69
2023-11-07T08:45:34.778Z,97611.84
2023-11-07T08:48:03.327Z,97619.13
2023-11-07T08:50:31.260Z,97616.34
2023-11-07T08:52:59.170Z,97610.47
2023-11-07T08:55:28.843Z,97613.97
2023-11-07T08:57:56.843Z,97606.59
2023-11-07T09:00:25.028Z,97611.63
2023-11-07T09:02:54.305Z,97600.00
2023-11-07T09:05:23.406Z,97606.13
2023-11-07T09:07:52.159Z,97602.28
2023-11-07T09:10:21.916Z,97597.50
2023-11-07T09:12:49.788Z,97611.47
2023-11-07T09:15:21.866Z,97588.88
2023-11-07T09:17:50.045Z,97602.38
2023-11-07T09:20:17.837Z,97588.34
2023-11-07T09:22:45.938Z,97600.72
2023-11-07T09:25:14.432Z,97600.63
2023-11-07T09:27:42.307Z,97595.16
2023-11-07T09:30:11.751Z,97595.16
2023-11-07T09:32:46.012Z,97593.22
2023-11-07T09:35:13.760Z,97584.31
2023-11-07T09:37:42.125Z,97580.34
2023-11-07T09:40:14.737Z,97586.81
2023-11-07T09:42:42.974Z,97580.63
2023-11-07T09:45:16.641Z,97578.03
2023-11-07T09:47:49.601Z,97573.78
2023-11-07T09:50:18.915Z,97569.50
2023-11-07T09:52:49.127Z,97586.06
2023-11-07T09:55:17.761Z,97579.81
2023-11-07T09:58:09.208Z,97589.75
2023-11-07T10:00:46.796Z,97572.59
2023-11-07T10:03:16.441Z,97578.31
2023-11-07T10:05:48.506Z,97571.59
2023-11-07T10:08:17.834Z,97575.44
2023-11-07T10:11:05.547Z,97566.50
2023-11-07T10:13:33.598Z,97571.78
2023-11-07T10:18:51.707Z,97566.47
2023-11-07T10:21:33.527Z,97559.34
2023-11-07T10:24:01.787Z,97566.56
2023-11-07T10:26:33.000Z,97567.94
2023-11-07T10:29:18.159Z,97567.75
2023-11-07T10:32:05.809Z,97567.72
2023-11-07T10:34:34.139Z,97552.47
2023-11-07T10:37:02.364Z,97558.66
2023-11-07T10:39:31.873Z,97559.97
2023-11-07T10:42:20.391Z,97542.88
2023-11-07T10:44:51.452Z,97550.75
2023-11-07T10:47:21.525Z,97538.84
2023-11-07T10:49:50.724Z,97545.38
2023-11-07T10:52:19.733Z,97533.97
2023-11-07T10:54:47.628Z,97536.44
2023-11-07T10:57:23.503Z,97536.00
2023-11-07T10:59:54.833Z,97521.22
2023-11-07T11:02:25.386Z,97531.91
2023-11-07T11:04:53.519Z,97526.75
2023-11-07T11:07:22.513Z,97534.09
2023-11-07T11:09:50.850Z,97525.00
2023-11-07T11:12:22.601Z,97540.97
2023-11-07T11:14:52.585Z,97537.06
2023-11-07T11:17:40.049Z,97534.97
2023-11-07T11:20:28.190Z,97527.22
2023-11-07T11:23:09.105Z,97531.81
2023-11-07T11:25:53.694Z,97531.25
2023-11-07T11:28:38.423Z,97524.41
2023-11-07T11:31:06.658Z,97521.75
2023-11-07T11:33:37.466Z,97517.91
2023-11-07T11:36:45.627Z,97533.66
2023-11-07T11:39:46.925Z,97512.94
2023-11-07T11:42:14.846Z,97526.03
2023-11-07T11:44:42.660Z,97504.78
2023-11-07T11:47:49.445Z,97514.81
2023-11-07T11:50:17.563Z,97510.47
2023-11-07T11:52:45.812Z,97496.84
2023-11-07T11:55:14.590Z,97513.78
2023-11-07T11:58:12.802Z,97514.59
2023-11-07T12:00:43.342Z,97506.13
2023-11-07T12:03:17.899Z,97515.72
2023-11-07T12:06:07.195Z,97509.38
2023-11-07T12:08:37.285Z,97505.38
2023-11-07T12:11:06.601Z,97501.03
2023-11-07T12:13:35.305Z,97498.50
2023-11-07T12:16:15.034Z,97498.25
2023-11-07T12:18:43.929Z,97501.28
2023-11-07T12:21:12.190Z,97489.16
2023-11-07T12:23:39.875Z,97487.91
2023-11-07T12:26:09.552Z,97484.56
2023-11-07T12:28:43.782Z,97499.50
2023-11-07T12:31:22.972Z,97477.09
2023-11-07T12:33:53.575Z,97480.31
2023-11-07T12:36:21.524Z,97476.75
2023-11-07T12:38:49.769Z,97492.00
2023-11-07T12:41:17.862Z,97478.63
2023-11-07T12:43:47.372Z,97469.47
2023-11-07T12:46:18.203Z,97471.00
2023-11-07T12:48:46.484Z,97464.00
2023-11-07T12:51:23.013Z,97457.25
2023-11-07T12:53:55.032Z,97476.03
2023-11-07T12:56:22.800Z,97471.13
2023-11-07T12:58:50.409Z,97468.22
2023-11-07T13:01:18.053Z,97461.06
2023-11-07T13:03:45.851Z,97464.34
2023-11-07T13:06:20.647Z,97449.19
2023-11-07T13:08:48.953Z,97455.91
2023-11-07T13:11:19.992Z,97462.44
2023-11-07T13:13:51.064Z,97452.84
2023-11-07T13:16:20.868Z,97451.81
2023-11-07T13:18:50.929Z,97458.75
2023-11-07T13:21:18.953Z,97437.75
2023-11-07T13:23:46.903Z,97455.66
2023-11-07T13:26:15.971Z,97438.78
2023-11-07T13:28:45.076Z,97441.13
2023-11-07T13:31:15.219Z,97454.81
2023-11-07T13:33:47.493Z,97442.97
2023-11-07T13:36:17.059Z,97435.03
2023-11-07T13:38:49.140Z,97448.72
2023-11-07T13:41:17.836Z,97441.94
2023-11-07T13:43:46.085Z,97449.16
2023-11-07T13:46:20.683Z,97440.13
2023-11-07T13:48:53.359Z,97441.81
2023-11-07T13:51:24.295Z,97443.69
2023-11-07T13:53:52.755Z,97428.66
2023-11-07T13:56:21.373Z,97391.94
2023-11-07T13:58:50.219Z,97413.56
2023-11-07T14:01:18.206Z,97443.41
2023-11-07T14:03:48.246Z,97435.16
2023-11-07T14:06:19.327Z,97430.72
2023-11-07T14:08:47.364Z,97435.81
2023-11-07T14:11:18.463Z,97414.34
2023-11-07T14:13:51.971Z,97370.16
2023-11-07T14:16:21.308Z,97423.06
2023-11-07T14:18:51.236Z,97419.53
2023-11-07T14:21:23.225Z,97411.38
2023-11-07T14:23:51.340Z,97376.44
2023-11-07T14:26:19.169Z,97409.25
2023-11-07T14:28:55.229Z,97408.28
2023-11-07T14:31:31.145Z,97390.00
2023-11-07T14:34:00.781Z,97408.94
2023-11-07T14:36:29.503Z,97412.31
2023-11-07T14:38:57.593Z,97397.59
2023-11-07T14:41:25.286Z,97401.63
2023-11-07T14:43:53.064Z,97399.94
2023-11-07T14:46:21.364Z,97395.91
2023-11-07T14:48:49.122Z,97389.09
2023-11-07T14:51:18.786Z,97406.88
2023-11-07T14:53:46.623Z,97398.16
2023-11-07T14:56:14.873Z,97391.38
2023-11-07T14:58:42.489Z,97380.31
2023-11-07T15:01:12.167Z,97379.06
2023-11-07T15:03:42.769Z,97386.63
2023-11-07T15:06:24.473Z,97377.81
2023-11-07T15:08:59.378Z,97366.78
2023-11-07T15:12:16.981Z,97387.44
2023-11-07T15:14:49.680Z,97378.50
2023-11-07T15:17:20.899Z,97365.56
2023-11-07T15:19:49.034Z,97376.22
2023-11-07T15:22:25.092Z,97347.72
2023-11-07T15:24:53.266Z,97369.59
2023-11-07T15:27:26.935Z,97356.97
2023-11-07T15:30:01.009Z,97349.50
2023-11-07T15:32:32.119Z,97337.38
2023-11-07T15:35:00.306Z,97337.84
2023-11-07T15:37:28.086Z,97347.56
2023-11-07T15:39:55.676Z,97352.09
2023-11-07T15:42:23.469Z,97338.66
2023-11-07T15:44:53.299Z,97341.19
2023-11-07T15:47:21.047Z,97347.00
2023-11-07T15:49:48.713Z,97344.66
2023-11-07T15:52:17.261Z,97338.38
2023-11-07T15:54:45.164Z,97335.88
2023-11-07T15:57:14.435Z,97326.19
2023-11-07T15:59:45.253Z,97333.69
2023-11-07T16:02:17.342Z,97307.00
2023-11-07T16:04:57.983Z,97303.69
2023-11-07T16:07:25.695Z,97320.41
2023-11-07T16:10:20.030Z,97332.00
2023-11-07T16:12:54.104Z,97317.28
2023-11-07T16:15:34.973Z,97327.16
2023-11-07T16:18:09.609Z,97337.47
2023-11-07T16:20:38.782Z,97332.00
2023-11-07T16:23:10.119Z,97329.31
2023-11-07T16:25:38.841Z,97327.31
2023-11-07T16:28:10.408Z,97316.97
2023-11-07T16:30:40.317Z,97333.09
2023-11-07T16:33:13.861Z,97311.03
2023-11-07T16:35:42.003Z,97310.44
2023-11-07T16:38:09.957Z,97305.56
2023-11-07T16:40:37.894Z,97318.72
2023-11-07T16:43:06.747Z,97311.97
2023-11-07T16:45:35.297Z,97312.31
2023-11-07T16:48:05.636Z,97319.66
2023-11-07T16:50:34.508Z,97280.56
2023-11-07T16:53:02.328Z,97315.25
2023-11-07T16:55:30.132Z,97296.03
2023-11-07T16:57:59.961Z,97312.28
2023-11-07T17:00:27.982Z,97308.53
2023-11-07T17:02:58.310Z,97292.44
2023-11-07T17:05:26.204Z,97306.97
2023-11-07T17:07:56.628Z,97291.81
2023-11-07T17:10:28.867Z,97297.47
2023-11-07T17:12:58.015Z,97319.03
2023-11-07T17:15:27.255Z,97261.19
2023-11-07T17:17:56.649Z,97293.53
2023-11-07T17:20:57.581Z,97291.94
2023-11-07T17:23:28.134Z,97303.41
2023-11-07T17:26:10.146Z,97281.19
2023-11-07T17:28:48.566Z,97263.81
2023-11-07T17:31:18.299Z,97288.69
2023-11-07T17:33:48.189Z,97303.09
2023-11-07T17:36:16.884Z,97287.44
2023-11-07T17:38:57.052Z,97284.44
2023-11-07T17:41:34.828Z,97279.28
2023-11-07T17:44:06.705Z,97248.50
2023-11-07T17:46:35.968Z,97269.44
2023-11-07T17:49:05.740Z,97263.44
2023-11-07T17:51:33.576Z,97266.44
2023-11-07T17:54:01.482Z,97239.84
2023-11-07T17:56:29.800Z,97248.72
2023-11-07T17:58:57.356Z,97229.56
2023-11-07T18:01:25.032Z,97235.97
2023-11-07T18:03:53.003Z,97237.81
2023-11-07T18:06:23.412Z,97246.56
2023-11-07T18:08:54.834Z,97254.09
2023-11-07T18:11:23.170Z,97237.81
2023-11-07T18:13:53.529Z,97225.31
2023-11-07T18:19:24.697Z,97185.66
2023-11-07T18:22:02.674Z,97174.41
2023-11-07T18:24:34.748Z,97234.09
2023-11-07T18:27:02.832Z,97175.00
2023-11-07T18:29:33.689Z,97187.63
2023-11-07T18:32:03.087Z,97208.13
2023-11-07T18:34:30.965Z,97198.91
2023-11-07T18:37:00.798Z,97180.47
2023-11-07T18:39:30.793Z,97227.84
2023-11-07T18:42:01.580Z,97194.41
2023-11-07T18:44:32.405Z,97176.56
2023-11-07T18:47:00.408Z,97195.66
2023-11-07T18:49:35.349Z,97164.22
2023-11-07T18:52:04.474Z,97201.84
2023-11-07T18:54:32.520Z,97200.31
2023-11-07T18:57:00.378Z,97200.78
2023-11-07T18:59:36.958Z,97202.66
2023-11-07T19:02:11.369Z,97198.41
2023-11-07T19:04:39.389Z,97205.75
2023-11-07T19:07:09.334Z,97203.91
2023-11-07T19:09:37.515Z,97205.16
2023-11-07T19:12:08.075Z,97194.53
2023-11-07T19:14:36.021Z,97185.03
2023-11-07T19:17:03.609Z,97192.03
2023-11-07T19:19:31.502Z,97193.78
2023-11-07T19:22:09.333Z,97200.19
2023-11-07T19:24:38.679Z,97159.28
2023-11-07T19:27:06.731Z,97179.88
2023-11-07T19:29:34.803Z,97192.72
2023-11-07T19:32:04.018Z,97192.22
2023-11-07T19:34:32.053Z,97181.91
2023-11-07T19:37:00.062Z,97164.59
2023-11-07T19:39:30.460Z,97177.69
2023-11-07T19:42:03.361Z,97177.53
2023-11-07T19:44:32.094Z,97163.59
2023-11-07T19:46:59.784Z,97168.44
2023-11-07T19:49:29.044Z,97171.88
2023-11-07T19:51:59.553Z,97157.59
2023-11-07T19:54:28.170Z,97163.59
2023-11-07T19:56:56.245Z,97163.75
2023-11-07T19:59:24.959Z,97157.66
2023-11-07T20:01:53.945Z,97157.97
2023-11-07T20:04:22.031Z,97152.34
2023-11-07T20:06:50.813Z,97143.28
2023-11-07T20:09:19.480Z,97159.81
2023-11-07T20:11:48.047Z,97158.44
2023-11-07T20:14:15.703Z,97162.06
2023-11-07T20:16:43.588Z,97143.78
2023-11-07T20:19:11.239Z,97155.50
2023-11-07T20:21:38.897Z,97159.59
2023-11-07T20:24:07.340Z,97140.22
2023-11-07T20:26:35.145Z,97146.28
2023-11-07T20:29:02.809Z,97140.66
2023-11-07T20:31:30.653Z,97146.09
2023-11-07T20:33:58.304Z,97140.50
2023-11-07T20:36:26.863Z,97155.34
2023-11-07T20:38:55.103Z,97155.53
2023-11-07T20:41:23.170Z,97147.53
2023-11-07T20:43:56.265Z,97151.78
2023-11-07T20:48:55.322Z,97155.06
2023-11-07T20:51:23.225Z,97135.19
2023-11-07T20:53:50.918Z,97138.94
2023-11-07T20:56:21.060Z,97136.44
2023-11-07T20:58:48.578Z,97130.78
2023-11-07T21:01:17.907Z,97137.34
2023-11-07T21:03:45.613Z,97138.75
2023-11-07T21:06:13.419Z,97141.63
2023-11-07T21:08:41.551Z,97131.75
2023-11-07T21:11:31.128Z,97132.56
2023-11-07T21:14:09.409Z,97122.41
2023-11-07T21:16:37.981Z,97084.94
2023-11-07T21:19:06.859Z,97098.34
2023-11-07T21:21:34.539Z,97098.53
2023-11-07T21:24:02.258Z,97116.78
2023-11-07T21:26:29.953Z,97114.72
2023-11-07T21:28:57.902Z,97098.47
2023-11-07T21:31:25.613Z,97104.41
2023-11-07T21:33:53.516Z,97113.03
2023-11-07T21:36:21.152Z,97111.19
2023-11-07T21:38:49.539Z,97112.44
2023-11-07T21:41:17.641Z,97118.53
2023-11-07T21:43:46.149Z,97110.09
2023-11-07T21:46:13.982Z,97090.28
2023-11-07T21:48:41.691Z,97100.91
2023-11-07T21:51:11.672Z,97100.91
2023-11-07T21:53:39.723Z,97112.91
2023-11-07T21:56:07.372Z,97102.28
2023-11-07T21:58:35.036Z,97106.22
2023-11-07T22:01:02.781Z,97099.31
2023-11-07T22:03:31.208Z,97092.59
2023-11-07T22:06:00.007Z,97085.41
2023-11-07T22:08:27.603Z,97088.84
2023-11-07T22:10:55.340Z,97093.97
2023-11-07T22:13:24.344Z,97082.75
2023-11-07T22:15:53.281Z,97076.00
2023-11-07T22:18:20.969Z,97085.22
2023-11-07T22:20:48.783Z,97090.25
2023-11-07T22:23:16.654Z,97076.19
2023-11-07T22:25:44.290Z,97068.97
2023-11-07T22:28:12.000Z,97071.19
2023-11-07T22:30:39.855Z,97060.97
2023-11-07T22:33:08.644Z,97075.84
2023-11-07T22:35:36.706Z,97056.63
2023-11-07T22:38:06.927Z,97068.16
2023-11-07T22:40:35.333Z,97055.94
2023-11-07T22:43:03.089Z,97053.16
2023-11-07T22:45:31.434Z,97045.84
2023-11-07T22:47:59.039Z,97034.59
2023-11-07T22:50:26.829Z,97044.72
2023-11-07T22:52:54.442Z,97039.34
2023-11-07T22:55:22.204Z,97036.25
2023-11-07T22:57:49.898Z,97029.22
2023-11-07T23:00:29.218Z,97036.44
2023-11-07T23:03:01.584Z,97026.09
2023-11-07T23:05:29.428Z,97021.50
2023-11-07T23:07:57.151Z,97024.97
2023-11-07T23:10:25.064Z,97016.25
2023-11-07T23:12:58.965Z,97011.97
2023-11-07T23:15:39.227Z,96997.41
2023-11-07T23:18:08.691Z,97003.78
2023-11-07T23:20:42.452Z,96991.41
2023-11-07T23:23:21.380Z,96982.91
2023-11-07T23:25:52.429Z,96963.97
2023-11-07T23:28:21.256Z,96930.63
2023-11-07T23:30:51.444Z,97004.06
2023-11-07T23:33:19.670Z,96985.94
2023-11-07T23:35:47.643Z,96979.03
2023-11-07T23:38:15.988Z,96981.06
2023-11-07T23:40:45.332Z,96984.50
2023-11-07T23:43:14.631Z,96981.44
2023-11-07T23:45:42.317Z,96986.16
2023-11-07T23:48:10.552Z,96972.53
2023-11-07T23:50:38.687Z,96977.72
2023-11-07T23:53:06.370Z,96978.97
2023-11-07T23:55:35.521Z,96979.31
2023-11-07T23:58:03.242Z,96975.41
